createdAt,value
2014-09-09T00:05:35.568Z,22
2014-09-09T00:11:36.066Z,22
2014-09-09T00:20:36.722Z,21.9
2014-09-09T00:30:37.429Z,22
2014-09-09T00:39:38.088Z,21.9
2014-09-09T00:48:38.746Z,21.9
2014-09-09T00:56:39.356Z,21.9
2014-09-09T01:05:39.998Z,21.9
2014-09-09T01:14:40.654Z,21.9
2014-09-09T01:22:41.265Z,21.9
2014-09-09T01:30:41.857Z,21.9
2014-09-09T01:37:42.418Z,21.9
2014-09-09T01:47:43.125Z,21.9
2014-09-09T01:56:43.782Z,21.8
2014-09-09T02:04:44.392Z,21.9
2014-09-09T02:13:45.050Z,21.9
2014-09-09T02:22:45.692Z,21.8
2014-09-09T02:29:46.253Z,21.8
2014-09-09T02:39:46.959Z,21.8
2014-09-09T02:48:47.600Z,21.8
2014-09-09T02:55:48.161Z,21.8
2014-09-09T03:03:48.770Z,21.8
2014-09-09T03:11:49.396Z,21.8
2014-09-09T03:18:49.955Z,21.8
2014-09-09T03:25:50.516Z,21.8
2014-09-09T03:34:51.173Z,21.8
2014-09-09T03:43:51.831Z,21.8
2014-09-09T03:52:52.459Z,21.7
2014-09-09T04:00:53.052Z,21.7
2014-09-09T04:08:53.661Z,21.7
2014-09-09T04:16:54.270Z,21.7
2014-09-09T04:25:54.912Z,21.7
2014-09-09T04:34:55.572Z,21.7
2014-09-09T04:42:56.367Z,21.7
2014-09-09T15:47:45.291Z,21.6
2014-09-09T15:56:45.934Z,21.5
2014-09-09T16:06:46.640Z,21.5
2014-09-09T16:16:47.377Z,21.5
2014-09-09T16:23:47.923Z,21.4
2014-09-09T16:33:48.613Z,21.4
2014-09-09T16:42:49.271Z,21.4
2014-09-09T16:50:49.865Z,21.4
2014-09-09T17:19:21.826Z,21.3
2014-09-09T17:27:22.420Z,21.3
2014-09-09T17:34:22.964Z,21.3
2014-09-09T17:44:23.670Z,21.3
2014-09-09T17:54:24.363Z,21.3
